sensor_id;sensor_type;location;lat;lon;timestamp;P1;durP1;ratioP1;P2;durP2;ratioP2
23573;SDS011;11965;53.640;10.050;2023-02-01T00:00:29;16.11;;;9.84;;
23573;SDS011;11965;53.640;10.050;2023-02-01T00:02:58;17.06;;;10.15;;
23573;SDS011;11965;53.640;10.050;2023-02-01T00:05:25;15.59;;;9.28;;
23573;SDS011;11965;53.640;10.050;2023-02-01T00:07:52;16.67;;;10.01;;
23573;SDS011;11965;53.640;10.050;2023-02-01T00:10:19;16.04;;;9.61;;
23573;SDS011;11965;53.640;10.050;2023-02-01T00:12:45;13.80;;;8.28;;
23573;SDS011;11965;53.640;10.050;2023-02-01T00:15:14;13.26;;;7.98;;
23573;SDS011;11965;53.640;10.050;2023-02-01T00:17:41;13.35;;;8.05;;
23573;SDS011;11965;53.640;10.050;2023-02-01T00:20:08;14.57;;;8.78;;
23573;SDS011;11965;53.640;10.050;2023-02-01T00:22:36;14.75;;;8.85;;
23573;SDS011;11965;53.640;10.050;2023-02-01T00:25:03;16.05;;;9.87;;
23573;SDS011;11965;53.640;10.050;2023-02-01T00:27:30;16.11;;;9.80;;
23573;SDS011;11965;53.640;10.050;2023-02-01T00:29:57;16.72;;;9.98;;
23573;SDS011;11965;53.640;10.050;2023-02-01T00:32:26;16.27;;;9.91;;
23573;SDS011;11965;53.640;10.050;2023-02-01T00:34:52;16.44;;;10.13;;
23573;SDS011;11965;53.640;10.050;2023-02-01T00:37:19;16.67;;;10.23;;
23573;SDS011;11965;53.640;10.050;2023-02-01T00:39:47;16.11;;;9.76;;
23573;SDS011;11965;53.640;10.050;2023-02-01T00:42:14;16.99;;;10.21;;
23573;SDS011;11965;53.640;10.050;2023-02-01T00:44:41;17.41;;;10.47;;
23573;SDS011;11965;53.640;10.050;2023-02-01T00:47:08;18.47;;;10.96;;
23573;SDS011;11965;53.640;10.050;2023-02-01T00:49:36;16.52;;;9.95;;
23573;SDS011;11965;53.640;10.050;2023-02-01T00:52:03;17.94;;;10.62;;
23573;SDS011;11965;53.640;10.050;2023-02-01T00:54:30;18.23;;;10.99;;
23573;SDS011;11965;53.640;10.050;2023-02-01T00:56:57;16.93;;;10.21;;
23573;SDS011;11965;53.640;10.050;2023-02-01T00:59:26;15.44;;;9.39;;
23573;SDS011;11965;53.640;10.050;2023-02-01T01:01:54;16.52;;;10.04;;
23573;SDS011;11965;53.640;10.050;2023-02-01T01:04:21;16.52;;;10.06;;
23573;SDS011;11965;53.640;10.050;2023-02-01T01:06:50;16.53;;;10.08;;
23573;SDS011;11965;53.640;10.050;2023-02-01T01:09:17;16.44;;;10.00;;
23573;SDS011;11965;53.640;10.050;2023-02-01T01:11:43;18.89;;;11.44;;
23573;SDS011;11965;53.640;10.050;2023-02-01T01:14:10;18.63;;;11.38;;
23573;SDS011;11965;53.640;10.050;2023-02-01T01:16:37;18.79;;;11.42;;
23573;SDS011;11965;53.640;10.050;2023-02-01T01:19:05;17.37;;;10.61;;
23573;SDS011;11965;53.640;10.050;2023-02-01T01:21:31;17.78;;;10.76;;
23573;SDS011;11965;53.640;10.050;2023-02-01T01:24:00;19.16;;;11.49;;
23573;SDS011;11965;53.640;10.050;2023-02-01T01:26:28;18.84;;;11.32;;
23573;SDS011;11965;53.640;10.050;2023-02-01T01:28:56;20.18;;;12.00;;
23573;SDS011;11965;53.640;10.050;2023-02-01T01:31:24;19.40;;;11.89;;
23573;SDS011;11965;53.640;10.050;2023-02-01T01:33:52;19.58;;;11.93;;
23573;SDS011;11965;53.640;10.050;2023-02-01T01:36:21;17.36;;;10.66;;
23573;SDS011;11965;53.640;10.050;2023-02-01T01:38:48;21.37;;;12.94;;
23573;SDS011;11965;53.640;10.050;2023-02-01T01:41:18;20.02;;;11.94;;
23573;SDS011;11965;53.640;10.050;2023-02-01T01:43:48;21.59;;;12.84;;
23573;SDS011;11965;53.640;10.050;2023-02-01T01:46:19;17.99;;;11.06;;
23573;SDS011;11965;53.640;10.050;2023-02-01T01:48:48;18.15;;;11.13;;
23573;SDS011;11965;53.640;10.050;2023-02-01T01:51:20;18.93;;;11.32;;
23573;SDS011;11965;53.640;10.050;2023-02-01T01:53:53;19.64;;;11.79;;
23573;SDS011;11965;53.640;10.050;2023-02-01T01:56:28;18.56;;;11.20;;
23573;SDS011;11965;53.640;10.050;2023-02-01T01:59:01;19.03;;;11.57;;
23573;SDS011;11965;53.640;10.050;2023-02-01T02:01:30;19.37;;;11.62;;
23573;SDS011;11965;53.640;10.050;2023-02-01T02:03:58;19.27;;;11.36;;
23573;SDS011;11965;53.640;10.050;2023-02-01T02:06:30;19.33;;;11.58;;
23573;SDS011;11965;53.640;10.050;2023-02-01T02:09:04;19.20;;;11.58;;
23573;SDS011;11965;53.640;10.050;2023-02-01T02:11:33;18.80;;;11.63;;
23573;SDS011;11965;53.640;10.050;2023-02-01T02:14:00;18.65;;;11.34;;
23573;SDS011;11965;53.640;10.050;2023-02-01T02:16:42;20.56;;;12.33;;
23573;SDS011;11965;53.640;10.050;2023-02-01T02:19:32;19.79;;;11.95;;
23573;SDS011;11965;53.640;10.050;2023-02-01T02:22:45;19.34;;;11.86;;
23573;SDS011;11965;53.640;10.050;2023-02-01T02:25:47;18.71;;;11.56;;
23573;SDS011;11965;53.640;10.050;2023-02-01T02:28:50;19.34;;;11.78;;
23573;SDS011;11965;53.640;10.050;2023-02-01T02:31:51;18.80;;;11.57;;
23573;SDS011;11965;53.640;10.050;2023-02-01T02:34:38;18.87;;;11.43;;
23573;SDS011;11965;53.640;10.050;2023-02-01T02:37:14;20.23;;;12.03;;
23573;SDS011;11965;53.640;10.050;2023-02-01T02:39:55;20.46;;;12.45;;
23573;SDS011;11965;53.640;10.050;2023-02-01T02:42:34;19.34;;;11.86;;
23573;SDS011;11965;53.640;10.050;2023-02-01T02:45:27;18.35;;;11.15;;
23573;SDS011;11965;53.640;10.050;2023-02-01T02:48:22;18.14;;;11.20;;
23573;SDS011;11965;53.640;10.050;2023-02-01T02:50:59;18.61;;;11.39;;
23573;SDS011;11965;53.640;10.050;2023-02-01T02:53:53;16.89;;;10.31;;
23573;SDS011;11965;53.640;10.050;2023-02-01T02:56:45;19.22;;;11.56;;
23573;SDS011;11965;53.640;10.050;2023-02-01T02:59:32;19.01;;;11.49;;
23573;SDS011;11965;53.640;10.050;2023-02-01T03:02:19;17.61;;;10.70;;
23573;SDS011;11965;53.640;10.050;2023-02-01T03:05:06;17.18;;;10.39;;
23573;SDS011;11965;53.640;10.050;2023-02-01T03:07:52;17.42;;;10.52;;
23573;SDS011;11965;53.640;10.050;2023-02-01T03:10:29;16.23;;;9.97;;
23573;SDS011;11965;53.640;10.050;2023-02-01T03:13:06;16.68;;;10.29;;
23573;SDS011;11965;53.640;10.050;2023-02-01T03:15:38;16.82;;;10.32;;
23573;SDS011;11965;53.640;10.050;2023-02-01T03:18:17;18.93;;;11.45;;
23573;SDS011;11965;53.640;10.050;2023-02-01T03:20:52;16.69;;;10.19;;
23573;SDS011;11965;53.640;10.050;2023-02-01T03:23:26;15.12;;;9.25;;
23573;SDS011;11965;53.640;10.050;2023-02-01T03:25:59;17.07;;;10.46;;
23573;SDS011;11965;53.640;10.050;2023-02-01T03:28:30;16.05;;;9.90;;
23573;SDS011;11965;53.640;10.050;2023-02-01T03:31:01;15.80;;;9.71;;
23573;SDS011;11965;53.640;10.050;2023-02-01T03:33:29;12.35;;;7.57;;
23573;SDS011;11965;53.640;10.050;2023-02-01T03:36:05;13.42;;;8.38;;
23573;SDS011;11965;53.640;10.050;2023-02-01T03:38:45;13.03;;;8.16;;
23573;SDS011;11965;53.640;10.050;2023-02-01T03:41:23;13.28;;;8.47;;
23573;SDS011;11965;53.640;10.050;2023-02-01T03:43:58;14.49;;;9.00;;
23573;SDS011;11965;53.640;10.050;2023-02-01T03:46:37;14.91;;;9.19;;
23573;SDS011;11965;53.640;10.050;2023-02-01T03:49:13;11.97;;;7.64;;
23573;SDS011;11965;53.640;10.050;2023-02-01T03:51:47;11.60;;;7.35;;
23573;SDS011;11965;53.640;10.050;2023-02-01T03:54:19;12.31;;;7.66;;
23573;SDS011;11965;53.640;10.050;2023-02-01T03:56:47;13.70;;;8.47;;
23573;SDS011;11965;53.640;10.050;2023-02-01T03:59:20;13.13;;;8.01;;
23573;SDS011;11965;53.640;10.050;2023-02-01T04:01:47;12.75;;;7.71;;
23573;SDS011;11965;53.640;10.050;2023-02-01T04:04:15;13.32;;;8.00;;
23573;SDS011;11965;53.640;10.050;2023-02-01T04:06:45;13.62;;;8.22;;
23573;SDS011;11965;53.640;10.050;2023-02-01T04:09:13;12.33;;;7.55;;
23573;SDS011;11965;53.640;10.050;2023-02-01T04:11:41;13.27;;;8.02;;
23573;SDS011;11965;53.640;10.050;2023-02-01T04:14:08;12.39;;;7.60;;
23573;SDS011;11965;53.640;10.050;2023-02-01T04:16:35;12.60;;;7.86;;
23573;SDS011;11965;53.640;10.050;2023-02-01T04:19:02;11.77;;;7.39;;
23573;SDS011;11965;53.640;10.050;2023-02-01T04:21:29;11.42;;;7.12;;
23573;SDS011;11965;53.640;10.050;2023-02-01T04:23:56;9.68;;;6.14;;
23573;SDS011;11965;53.640;10.050;2023-02-01T04:26:23;9.73;;;6.28;;
23573;SDS011;11965;53.640;10.050;2023-02-01T04:28:51;10.87;;;7.00;;
23573;SDS011;11965;53.640;10.050;2023-02-01T04:31:19;11.02;;;6.97;;
23573;SDS011;11965;53.640;10.050;2023-02-01T04:33:50;12.75;;;7.82;;
23573;SDS011;11965;53.640;10.050;2023-02-01T04:36:18;14.16;;;8.72;;
23573;SDS011;11965;53.640;10.050;2023-02-01T04:38:47;12.66;;;7.84;;
23573;SDS011;11965;53.640;10.050;2023-02-01T04:41:13;11.03;;;7.02;;
23573;SDS011;11965;53.640;10.050;2023-02-01T04:43:44;12.21;;;7.65;;
23573;SDS011;11965;53.640;10.050;2023-02-01T04:46:12;10.80;;;6.82;;
23573;SDS011;11965;53.640;10.050;2023-02-01T04:48:40;10.15;;;6.38;;
23573;SDS011;11965;53.640;10.050;2023-02-01T04:51:07;10.35;;;6.51;;
23573;SDS011;11965;53.640;10.050;2023-02-01T04:53:35;9.71;;;6.12;;
23573;SDS011;11965;53.640;10.050;2023-02-01T04:56:03;9.85;;;6.11;;
23573;SDS011;11965;53.640;10.050;2023-02-01T04:58:30;8.62;;;5.51;;
23573;SDS011;11965;53.640;10.050;2023-02-01T05:00:57;7.35;;;4.88;;
23573;SDS011;11965;53.640;10.050;2023-02-01T05:03:25;7.93;;;5.26;;
23573;SDS011;11965;53.640;10.050;2023-02-01T05:05:52;7.22;;;4.77;;
23573;SDS011;11965;53.640;10.050;2023-02-01T05:08:19;7.99;;;5.36;;
23573;SDS011;11965;53.640;10.050;2023-02-01T05:10:47;6.86;;;4.63;;
23573;SDS011;11965;53.640;10.050;2023-02-01T05:13:14;6.12;;;4.19;;
23573;SDS011;11965;53.640;10.050;2023-02-01T05:15:58;5.60;;;3.97;;
23573;SDS011;11965;53.640;10.050;2023-02-01T05:18:26;5.78;;;4.15;;
23573;SDS011;11965;53.640;10.050;2023-02-01T05:20:53;5.53;;;3.93;;
23573;SDS011;11965;53.640;10.050;2023-02-01T05:23:20;4.76;;;3.35;;
23573;SDS011;11965;53.640;10.050;2023-02-01T05:25:47;4.67;;;3.27;;
23573;SDS011;11965;53.640;10.050;2023-02-01T05:28:14;3.54;;;2.50;;
23573;SDS011;11965;53.640;10.050;2023-02-01T05:30:41;3.21;;;2.29;;
23573;SDS011;11965;53.640;10.050;2023-02-01T05:33:08;3.92;;;2.83;;
23573;SDS011;11965;53.640;10.050;2023-02-01T05:35:36;2.73;;;2.04;;
23573;SDS011;11965;53.640;10.050;2023-02-01T05:38:03;2.66;;;1.98;;
23573;SDS011;11965;53.640;10.050;2023-02-01T05:40:30;2.47;;;1.82;;
23573;SDS011;11965;53.640;10.050;2023-02-01T05:42:56;1.72;;;1.28;;
23573;SDS011;11965;53.640;10.050;2023-02-01T05:45:23;1.79;;;1.33;;
23573;SDS011;11965;53.640;10.050;2023-02-01T05:47:50;2.08;;;1.55;;
23573;SDS011;11965;53.640;10.050;2023-02-01T05:50:17;1.83;;;1.36;;
23573;SDS011;11965;53.640;10.050;2023-02-01T05:52:45;2.27;;;1.69;;
23573;SDS011;11965;53.640;10.050;2023-02-01T05:55:12;1.80;;;1.34;;
23573;SDS011;11965;53.640;10.050;2023-02-01T05:57:39;1.93;;;1.44;;
23573;SDS011;11965;53.640;10.050;2023-02-01T06:00:07;1.94;;;1.45;;
23573;SDS011;11965;53.640;10.050;2023-02-01T06:02:37;2.01;;;1.51;;
23573;SDS011;11965;53.640;10.050;2023-02-01T06:05:05;2.31;;;1.69;;
23573;SDS011;11965;53.640;10.050;2023-02-01T06:07:32;2.41;;;1.74;;
23573;SDS011;11965;53.640;10.050;2023-02-01T06:10:00;1.67;;;1.24;;
23573;SDS011;11965;53.640;10.050;2023-02-01T06:12:27;1.98;;;1.47;;
23573;SDS011;11965;53.640;10.050;2023-02-01T06:14:54;1.96;;;1.46;;
23573;SDS011;11965;53.640;10.050;2023-02-01T06:17:21;1.73;;;1.29;;
23573;SDS011;11965;53.640;10.050;2023-02-01T06:19:48;1.43;;;1.08;;
23573;SDS011;11965;53.640;10.050;2023-02-01T06:22:14;1.74;;;1.31;;
23573;SDS011;11965;53.640;10.050;2023-02-01T06:24:41;2.08;;;1.58;;
23573;SDS011;11965;53.640;10.050;2023-02-01T06:27:09;1.89;;;1.45;;
23573;SDS011;11965;53.640;10.050;2023-02-01T06:29:38;2.24;;;1.72;;
23573;SDS011;11965;53.640;10.050;2023-02-01T06:32:05;2.54;;;1.92;;
23573;SDS011;11965;53.640;10.050;2023-02-01T06:34:32;2.21;;;1.63;;
23573;SDS011;11965;53.640;10.050;2023-02-01T06:36:59;3.03;;;2.23;;
23573;SDS011;11965;53.640;10.050;2023-02-01T06:39:25;2.70;;;1.98;;
23573;SDS011;11965;53.640;10.050;2023-02-01T06:41:53;2.92;;;2.11;;
23573;SDS011;11965;53.640;10.050;2023-02-01T06:44:21;3.43;;;2.44;;
23573;SDS011;11965;53.640;10.050;2023-02-01T06:46:48;3.87;;;2.71;;
23573;SDS011;11965;53.640;10.050;2023-02-01T06:49:15;3.73;;;2.59;;
23573;SDS011;11965;53.640;10.050;2023-02-01T06:51:43;4.00;;;2.77;;
23573;SDS011;11965;53.640;10.050;2023-02-01T06:54:10;4.13;;;2.90;;
23573;SDS011;11965;53.640;10.050;2023-02-01T06:56:37;4.41;;;3.12;;
23573;SDS011;11965;53.640;10.050;2023-02-01T06:59:04;4.88;;;3.53;;
23573;SDS011;11965;53.640;10.050;2023-02-01T07:01:33;4.44;;;3.14;;
23573;SDS011;11965;53.640;10.050;2023-02-01T07:04:00;5.51;;;3.86;;
23573;SDS011;11965;53.640;10.050;2023-02-01T07:06:27;5.81;;;4.01;;
23573;SDS011;11965;53.640;10.050;2023-02-01T07:08:54;6.75;;;4.45;;
23573;SDS011;11965;53.640;10.050;2023-02-01T07:11:22;7.69;;;5.08;;
23573;SDS011;11965;53.640;10.050;2023-02-01T07:13:49;6.85;;;4.65;;
23573;SDS011;11965;53.640;10.050;2023-02-01T07:16:17;7.90;;;5.26;;
23573;SDS011;11965;53.640;10.050;2023-02-01T07:18:47;7.65;;;5.10;;
23573;SDS011;11965;53.640;10.050;2023-02-01T07:21:16;8.13;;;5.30;;
23573;SDS011;11965;53.640;10.050;2023-02-01T07:23:43;8.31;;;5.37;;
23573;SDS011;11965;53.640;10.050;2023-02-01T07:26:11;9.96;;;6.43;;
23573;SDS011;11965;53.640;10.050;2023-02-01T07:28:39;8.91;;;5.72;;
23573;SDS011;11965;53.640;10.050;2023-02-01T07:31:08;10.06;;;6.36;;
23573;SDS011;11965;53.640;10.050;2023-02-01T07:33:37;11.15;;;7.09;;
23573;SDS011;11965;53.640;10.050;2023-02-01T07:36:06;10.79;;;6.95;;
23573;SDS011;11965;53.640;10.050;2023-02-01T07:38:37;11.67;;;7.47;;
23573;SDS011;11965;53.640;10.050;2023-02-01T07:41:04;11.19;;;7.13;;
23573;SDS011;11965;53.640;10.050;2023-02-01T07:43:33;11.34;;;7.23;;
23573;SDS011;11965;53.640;10.050;2023-02-01T07:46:01;11.50;;;7.36;;
23573;SDS011;11965;53.640;10.050;2023-02-01T07:48:30;11.74;;;7.48;;
23573;SDS011;11965;53.640;10.050;2023-02-01T07:50:59;10.25;;;6.65;;
23573;SDS011;11965;53.640;10.050;2023-02-01T07:53:29;10.70;;;6.84;;
23573;SDS011;11965;53.640;10.050;2023-02-01T07:55:58;12.08;;;7.59;;
23573;SDS011;11965;53.640;10.050;2023-02-01T07:58:26;13.23;;;8.18;;
23573;SDS011;11965;53.640;10.050;2023-02-01T08:00:53;12.42;;;7.61;;
23573;SDS011;11965;53.640;10.050;2023-02-01T08:03:38;11.18;;;7.09;;
23573;SDS011;11965;53.640;10.050;2023-02-01T08:06:06;11.80;;;7.55;;
23573;SDS011;11965;53.640;10.050;2023-02-01T08:08:34;12.67;;;8.21;;
23573;SDS011;11965;53.640;10.050;2023-02-01T08:11:02;12.17;;;8.05;;
23573;SDS011;11965;53.640;10.050;2023-02-01T08:13:32;13.02;;;8.70;;
23573;SDS011;11965;53.640;10.050;2023-02-01T08:16:00;13.01;;;8.58;;
23573;SDS011;11965;53.640;10.050;2023-02-01T08:18:28;12.51;;;8.15;;
23573;SDS011;11965;53.640;10.050;2023-02-01T08:20:55;13.87;;;8.79;;
23573;SDS011;11965;53.640;10.050;2023-02-01T08:23:22;15.28;;;9.45;;
23573;SDS011;11965;53.640;10.050;2023-02-01T08:25:51;15.21;;;9.46;;
23573;SDS011;11965;53.640;10.050;2023-02-01T08:28:18;15.51;;;9.83;;
23573;SDS011;11965;53.640;10.050;2023-02-01T08:30:45;14.82;;;9.40;;
23573;SDS011;11965;53.640;10.050;2023-02-01T08:33:12;13.54;;;8.70;;
23573;SDS011;11965;53.640;10.050;2023-02-01T08:35:38;13.79;;;9.09;;
23573;SDS011;11965;53.640;10.050;2023-02-01T08:38:05;13.86;;;8.94;;
23573;SDS011;11965;53.640;10.050;2023-02-01T08:40:32;14.21;;;9.07;;
23573;SDS011;11965;53.640;10.050;2023-02-01T08:43:00;13.21;;;8.44;;
23573;SDS011;11965;53.640;10.050;2023-02-01T08:45:28;12.74;;;8.19;;
23573;SDS011;11965;53.640;10.050;2023-02-01T08:47:56;10.84;;;7.01;;
23573;SDS011;11965;53.640;10.050;2023-02-01T08:50:23;9.89;;;6.39;;
23573;SDS011;11965;53.640;10.050;2023-02-01T08:52:51;10.94;;;7.02;;
23573;SDS011;11965;53.640;10.050;2023-02-01T08:55:18;11.02;;;6.83;;
23573;SDS011;11965;53.640;10.050;2023-02-01T08:57:45;10.28;;;6.42;;
23573;SDS011;11965;53.640;10.050;2023-02-01T09:00:14;9.21;;;5.72;;
23573;SDS011;11965;53.640;10.050;2023-02-01T09:02:44;9.20;;;5.89;;
23573;SDS011;11965;53.640;10.050;2023-02-01T09:05:12;8.60;;;5.62;;
23573;SDS011;11965;53.640;10.050;2023-02-01T09:07:41;8.29;;;5.41;;
23573;SDS011;11965;53.640;10.050;2023-02-01T09:10:09;8.31;;;5.37;;
23573;SDS011;11965;53.640;10.050;2023-02-01T09:12:36;10.06;;;6.40;;
23573;SDS011;11965;53.640;10.050;2023-02-01T09:15:04;11.32;;;7.10;;
23573;SDS011;11965;53.640;10.050;2023-02-01T09:17:34;11.27;;;7.15;;
23573;SDS011;11965;53.640;10.050;2023-02-01T09:20:02;12.84;;;8.09;;
23573;SDS011;11965;53.640;10.050;2023-02-01T09:22:29;13.27;;;8.33;;
23573;SDS011;11965;53.640;10.050;2023-02-01T09:24:56;13.96;;;8.65;;
23573;SDS011;11965;53.640;10.050;2023-02-01T09:27:23;14.02;;;8.66;;
23573;SDS011;11965;53.640;10.050;2023-02-01T09:29:50;15.34;;;9.22;;
23573;SDS011;11965;53.640;10.050;2023-02-01T09:32:18;14.63;;;8.93;;
23573;SDS011;11965;53.640;10.050;2023-02-01T09:34:47;14.92;;;9.27;;
23573;SDS011;11965;53.640;10.050;2023-02-01T09:37:13;13.69;;;8.49;;
23573;SDS011;11965;53.640;10.050;2023-02-01T09:39:40;14.28;;;8.70;;
23573;SDS011;11965;53.640;10.050;2023-02-01T09:42:14;13.83;;;8.44;;
23573;SDS011;11965;53.640;10.050;2023-02-01T09:44:57;14.29;;;8.92;;
23573;SDS011;11965;53.640;10.050;2023-02-01T09:47:36;13.87;;;8.85;;
23573;SDS011;11965;53.640;10.050;2023-02-01T09:50:15;15.27;;;9.47;;
23573;SDS011;11965;53.640;10.050;2023-02-01T09:52:48;15.10;;;9.25;;
23573;SDS011;11965;53.640;10.050;2023-02-01T09:55:26;15.16;;;9.22;;
23573;SDS011;11965;53.640;10.050;2023-02-01T09:58:02;15.15;;;9.28;;
23573;SDS011;11965;53.640;10.050;2023-02-01T10:00:35;14.92;;;9.23;;
23573;SDS011;11965;53.640;10.050;2023-02-01T10:03:05;15.15;;;9.40;;
23573;SDS011;11965;53.640;10.050;2023-02-01T10:05:47;14.49;;;9.03;;
23573;SDS011;11965;53.640;10.050;2023-02-01T10:08:30;14.49;;;9.05;;
23573;SDS011;11965;53.640;10.050;2023-02-01T10:11:16;14.35;;;9.00;;
23573;SDS011;11965;53.640;10.050;2023-02-01T10:13:54;14.24;;;9.22;;
23573;SDS011;11965;53.640;10.050;2023-02-01T10:16:39;13.92;;;8.74;;
23573;SDS011;11965;53.640;10.050;2023-02-01T10:19:22;14.09;;;8.69;;
23573;SDS011;11965;53.640;10.050;2023-02-01T10:22:06;14.84;;;9.25;;
23573;SDS011;11965;53.640;10.050;2023-02-01T10:24:40;15.51;;;9.73;;
23573;SDS011;11965;53.640;10.050;2023-02-01T10:27:14;15.19;;;9.32;;
23573;SDS011;11965;53.640;10.050;2023-02-01T10:29:46;15.31;;;9.30;;
23573;SDS011;11965;53.640;10.050;2023-02-01T10:32:21;13.37;;;8.38;;
23573;SDS011;11965;53.640;10.050;2023-02-01T10:34:55;14.39;;;8.89;;
23573;SDS011;11965;53.640;10.050;2023-02-01T10:37:28;15.12;;;9.22;;
23573;SDS011;11965;53.640;10.050;2023-02-01T10:39:58;15.22;;;9.38;;
23573;SDS011;11965;53.640;10.050;2023-02-01T10:42:30;13.80;;;8.59;;
23573;SDS011;11965;53.640;10.050;2023-02-01T10:44:58;13.59;;;8.43;;
23573;SDS011;11965;53.640;10.050;2023-02-01T10:47:28;13.35;;;8.29;;
23573;SDS011;11965;53.640;10.050;2023-02-01T10:49:57;13.33;;;8.35;;
23573;SDS011;11965;53.640;10.050;2023-02-01T10:52:42;13.15;;;8.12;;
23573;SDS011;11965;53.640;10.050;2023-02-01T10:55:27;12.48;;;7.84;;
23573;SDS011;11965;53.640;10.050;2023-02-01T10:57:59;12.45;;;7.80;;
23573;SDS011;11965;53.640;10.050;2023-02-01T11:00:33;15.04;;;9.30;;
23573;SDS011;11965;53.640;10.050;2023-02-01T11:03:21;13.16;;;7.98;;
23573;SDS011;11965;53.640;10.050;2023-02-01T11:06:01;14.01;;;8.53;;
23573;SDS011;11965;53.640;10.050;2023-02-01T11:08:42;12.68;;;7.86;;
23573;SDS011;11965;53.640;10.050;2023-02-01T11:11:11;13.34;;;8.05;;
23573;SDS011;11965;53.640;10.050;2023-02-01T11:13:38;9.81;;;6.01;;
23573;SDS011;11965;53.640;10.050;2023-02-01T11:16:06;9.96;;;6.33;;
23573;SDS011;11965;53.640;10.050;2023-02-01T11:18:40;9.12;;;5.74;;
23573;SDS011;11965;53.640;10.050;2023-02-01T11:21:08;8.31;;;5.25;;
23573;SDS011;11965;53.640;10.050;2023-02-01T11:23:41;11.10;;;6.93;;
23573;SDS011;11965;53.640;10.050;2023-02-01T11:26:13;11.61;;;7.27;;
23573;SDS011;11965;53.640;10.050;2023-02-01T11:28:50;11.82;;;7.39;;
23573;SDS011;11965;53.640;10.050;2023-02-01T11:31:22;11.53;;;7.30;;
23573;SDS011;11965;53.640;10.050;2023-02-01T11:33:52;11.95;;;7.65;;
23573;SDS011;11965;53.640;10.050;2023-02-01T11:36:26;10.61;;;6.95;;
23573;SDS011;11965;53.640;10.050;2023-02-01T11:39:09;11.21;;;7.32;;
23573;SDS011;11965;53.640;10.050;2023-02-01T11:41:55;12.14;;;7.64;;
23573;SDS011;11965;53.640;10.050;2023-02-01T11:44:29;11.25;;;7.11;;
23573;SDS011;11965;53.640;10.050;2023-02-01T11:49:54;12.35;;;7.68;;
23573;SDS011;11965;53.640;10.050;2023-02-01T11:55:21;13.04;;;8.21;;
23573;SDS011;11965;53.640;10.050;2023-02-01T11:58:12;12.76;;;8.38;;
23573;SDS011;11965;53.640;10.050;2023-02-01T12:00:57;11.14;;;7.70;;
23573;SDS011;11965;53.640;10.050;2023-02-01T12:06:28;7.57;;;6.38;;
23573;SDS011;11965;53.640;10.050;2023-02-01T12:09:14;12.96;;;10.07;;
23573;SDS011;11965;53.640;10.050;2023-02-01T12:12:00;8.36;;;7.07;;
23573;SDS011;11965;53.640;10.050;2023-02-01T12:14:45;5.91;;;4.70;;
23573;SDS011;11965;53.640;10.050;2023-02-01T12:20:47;6.73;;;5.17;;
23573;SDS011;11965;53.640;10.050;2023-02-01T12:23:41;7.62;;;5.86;;
23573;SDS011;11965;53.640;10.050;2023-02-01T12:32:28;6.70;;;4.63;;
23573;SDS011;11965;53.640;10.050;2023-02-01T12:35:21;7.11;;;5.14;;
23573;SDS011;11965;53.640;10.050;2023-02-01T12:38:07;7.25;;;5.40;;
23573;SDS011;11965;53.640;10.050;2023-02-01T12:40:53;5.61;;;4.38;;
23573;SDS011;11965;53.640;10.050;2023-02-01T12:43:36;4.82;;;3.98;;
23573;SDS011;11965;53.640;10.050;2023-02-01T12:46:10;7.13;;;6.61;;
23573;SDS011;11965;53.640;10.050;2023-02-01T12:48:46;4.51;;;4.33;;
23573;SDS011;11965;53.640;10.050;2023-02-01T12:51:23;6.93;;;6.85;;
23573;SDS011;11965;53.640;10.050;2023-02-01T12:53:55;2.65;;;2.62;;
23573;SDS011;11965;53.640;10.050;2023-02-01T12:56:31;1.42;;;1.38;;
23573;SDS011;11965;53.640;10.050;2023-02-01T12:59:10;2.38;;;2.31;;
23573;SDS011;11965;53.640;10.050;2023-02-01T13:01:50;1.87;;;1.81;;
23573;SDS011;11965;53.640;10.050;2023-02-01T13:04:27;1.38;;;1.30;;
23573;SDS011;11965;53.640;10.050;2023-02-01T13:07:04;2.56;;;2.44;;
23573;SDS011;11965;53.640;10.050;2023-02-01T13:09:39;1.89;;;1.83;;
23573;SDS011;11965;53.640;10.050;2023-02-01T13:12:12;3.74;;;3.65;;
23573;SDS011;11965;53.640;10.050;2023-02-01T13:14:46;2.02;;;2.02;;
23573;SDS011;11965;53.640;10.050;2023-02-01T13:17:21;1.61;;;1.60;;
23573;SDS011;11965;53.640;10.050;2023-02-01T13:19:52;1.54;;;1.53;;
23573;SDS011;11965;53.640;10.050;2023-02-01T13:22:25;1.12;;;1.10;;
23573;SDS011;11965;53.640;10.050;2023-02-01T13:24:57;1.12;;;1.09;;
23573;SDS011;11965;53.640;10.050;2023-02-01T13:27:28;1.19;;;1.14;;
23573;SDS011;11965;53.640;10.050;2023-02-01T13:29:57;1.80;;;1.72;;
23573;SDS011;11965;53.640;10.050;2023-02-01T13:32:34;1.61;;;1.52;;
23573;SDS011;11965;53.640;10.050;2023-02-01T13:41:24;1.48;;;1.39;;
23573;SDS011;11965;53.640;10.050;2023-02-01T13:43:56;3.18;;;3.01;;
23573;SDS011;11965;53.640;10.050;2023-02-01T13:46:28;3.07;;;2.98;;
23573;SDS011;11965;53.640;10.050;2023-02-01T13:48:57;4.56;;;4.48;;
23573;SDS011;11965;53.640;10.050;2023-02-01T13:51:34;6.84;;;6.77;;
23573;SDS011;11965;53.640;10.050;2023-02-01T13:54:03;6.23;;;6.23;;
23573;SDS011;11965;53.640;10.050;2023-02-01T13:56:39;2.26;;;2.24;;
23573;SDS011;11965;53.640;10.050;2023-02-01T14:05:04;7.11;;;7.07;;
23573;SDS011;11965;53.640;10.050;2023-02-01T14:07:35;4.77;;;4.76;;
23573;SDS011;11965;53.640;10.050;2023-02-01T14:13:11;8.35;;;8.35;;
23573;SDS011;11965;53.640;10.050;2023-02-01T14:15:40;4.82;;;4.82;;
23573;SDS011;11965;53.640;10.050;2023-02-01T14:18:49;3.31;;;3.31;;
23573;SDS011;11965;53.640;10.050;2023-02-01T14:21:29;9.51;;;9.51;;
23573;SDS011;11965;53.640;10.050;2023-02-01T14:24:01;6.03;;;6.01;;
23573;SDS011;11965;53.640;10.050;2023-02-01T14:26:43;2.53;;;2.48;;
23573;SDS011;11965;53.640;10.050;2023-02-01T14:32:03;7.92;;;7.77;;
23573;SDS011;11965;53.640;10.050;2023-02-01T14:34:37;9.06;;;8.80;;
23573;SDS011;11965;53.640;10.050;2023-02-01T14:37:23;9.42;;;9.17;;
23573;SDS011;11965;53.640;10.050;2023-02-01T14:39:56;40.68;;;39.29;;
23573;SDS011;11965;53.640;10.050;2023-02-01T14:42:28;32.92;;;31.20;;
23573;SDS011;11965;53.640;10.050;2023-02-01T14:51:18;30.50;;;27.61;;
23573;SDS011;11965;53.640;10.050;2023-02-01T14:53:47;7.79;;;7.05;;
23573;SDS011;11965;53.640;10.050;2023-02-01T14:56:18;9.31;;;8.55;;
23573;SDS011;11965;53.640;10.050;2023-02-01T14:58:48;8.56;;;7.92;;
23573;SDS011;11965;53.640;10.050;2023-02-01T15:01:22;5.57;;;5.13;;
23573;SDS011;11965;53.640;10.050;2023-02-01T15:03:53;3.72;;;3.29;;
23573;SDS011;11965;53.640;10.050;2023-02-01T15:06:27;3.89;;;3.29;;
23573;SDS011;11965;53.640;10.050;2023-02-01T15:08:59;6.14;;;5.33;;
23573;SDS011;11965;53.640;10.050;2023-02-01T15:11:31;4.64;;;4.02;;
23573;SDS011;11965;53.640;10.050;2023-02-01T15:13:58;5.07;;;4.40;;
23573;SDS011;11965;53.640;10.050;2023-02-01T15:16:26;4.91;;;4.24;;
23573;SDS011;11965;53.640;10.050;2023-02-01T15:19:09;3.91;;;3.30;;
23573;SDS011;11965;53.640;10.050;2023-02-01T15:21:44;4.36;;;3.70;;
23573;SDS011;11965;53.640;10.050;2023-02-01T15:24:14;4.96;;;4.05;;
23573;SDS011;11965;53.640;10.050;2023-02-01T15:26:46;6.23;;;5.00;;
23573;SDS011;11965;53.640;10.050;2023-02-01T15:29:13;9.20;;;7.66;;
23573;SDS011;11965;53.640;10.050;2023-02-01T15:31:42;5.51;;;5.04;;
23573;SDS011;11965;53.640;10.050;2023-02-01T15:34:12;5.16;;;4.20;;